createdAt,value
2017-11-29T00:01:20.347Z,6.30
2017-11-29T00:03:47.843Z,6.30
2017-11-29T00:06:15.335Z,6.30
2017-11-29T00:08:43.058Z,6.30
2017-11-29T00:11:10.530Z,6.20
2017-11-29T00:13:38.029Z,6.20
2017-11-29T00:16:06.349Z,6.20
2017-11-29T00:18:33.831Z,6.20
2017-11-29T00:21:02.086Z,6.20
2017-11-29T00:23:29.694Z,6.20
2017-11-29T00:25:58.053Z,6.20
2017-11-29T00:28:25.551Z,6.20
2017-11-29T00:30:53.095Z,6.20
2017-11-29T00:33:21.401Z,6.20
2017-11-29T00:35:48.887Z,6.10
2017-11-29T00:38:16.388Z,6.10
2017-11-29T00:40:43.889Z,6.10
2017-11-29T00:43:11.373Z,6.10
2017-11-29T00:45:38.969Z,6.20
2017-11-29T00:48:07.835Z,6.10
2017-11-29T00:50:35.416Z,6.10
2017-11-29T00:53:03.706Z,6.10
2017-11-29T00:55:32.020Z,6.10
2017-11-29T00:57:59.502Z,6.10
2017-11-29T01:00:26.989Z,6.10
2017-11-29T01:02:55.222Z,6.00
2017-11-29T01:05:22.718Z,6.00
2017-11-29T01:07:51.010Z,5.90
2017-11-29T01:10:18.529Z,5.90
2017-11-29T01:12:46.218Z,5.90
2017-11-29T01:15:13.710Z,5.80
2017-11-29T01:17:41.235Z,5.70
2017-11-29T01:20:09.613Z,5.60
2017-11-29T01:22:37.850Z,5.50
2017-11-29T01:25:05.330Z,5.50
2017-11-29T01:27:32.831Z,5.50
2017-11-29T01:30:00.335Z,5.40
2017-11-29T01:32:27.855Z,5.30
2017-11-29T01:34:55.352Z,5.30
2017-11-29T01:37:22.828Z,5.20
2017-11-29T01:39:50.440Z,5.10
2017-11-29T01:42:17.907Z,5.20
2017-11-29T01:44:45.414Z,5.10
2017-11-29T01:47:12.907Z,5.10
2017-11-29T01:49:40.382Z,5.10
2017-11-29T01:52:08.016Z,5.00
2017-11-29T01:54:35.509Z,5.00
2017-11-29T01:57:03.013Z,5.00
2017-11-29T01:59:30.498Z,5.00
2017-11-29T02:01:58.253Z,5.00
2017-11-29T02:04:25.735Z,5.10
2017-11-29T02:06:53.376Z,5.10
2017-11-29T02:09:21.034Z,5.10
2017-11-29T02:11:48.542Z,5.20
2017-11-29T02:14:16.024Z,5.10
2017-11-29T02:16:43.550Z,5.20
2017-11-29T02:19:11.049Z,5.10
2017-11-29T02:21:38.583Z,5.00
2017-11-29T02:24:06.130Z,5.00
2017-11-29T02:26:33.647Z,5.00
2017-11-29T02:29:01.146Z,5.00
2017-11-29T02:31:28.666Z,5.00
2017-11-29T02:33:56.921Z,4.90
2017-11-29T02:36:24.615Z,4.90
2017-11-29T02:38:52.157Z,4.90
2017-11-29T02:41:32.211Z,4.90
2017-11-29T02:43:59.875Z,4.90
2017-11-29T02:46:27.393Z,4.90
2017-11-29T02:48:54.889Z,4.90
2017-11-29T02:51:22.406Z,4.80
2017-11-29T02:53:49.905Z,4.80
2017-11-29T02:56:18.181Z,4.60
2017-11-29T02:58:46.442Z,4.60
2017-11-29T03:01:13.940Z,4.60
2017-11-29T03:03:41.429Z,4.60
2017-11-29T03:06:08.907Z,4.50
2017-11-29T03:08:36.394Z,4.40
2017-11-29T03:11:04.670Z,4.30
2017-11-29T03:13:32.931Z,4.20
2017-11-29T03:16:01.259Z,4.20
2017-11-29T03:18:28.885Z,4.20
2017-11-29T03:20:56.350Z,4.10
2017-11-29T03:23:24.004Z,4.10
2017-11-29T03:25:51.536Z,4.10
2017-11-29T03:28:19.030Z,4.10
2017-11-29T03:30:47.302Z,4.20
2017-11-29T03:33:15.006Z,4.10
2017-11-29T03:35:42.526Z,4.10
2017-11-29T03:38:10.837Z,4.10
2017-11-29T03:40:38.329Z,4.00
2017-11-29T03:43:05.808Z,4.00
2017-11-29T03:45:33.314Z,4.00
2017-11-29T03:48:00.930Z,3.90
2017-11-29T03:50:28.434Z,3.90
2017-11-29T03:52:55.935Z,4.00
2017-11-29T03:55:23.501Z,4.00
2017-11-29T03:57:50.990Z,4.00
2017-11-29T04:00:18.525Z,4.00
2017-11-29T04:02:46.789Z,4.10
2017-11-29T04:05:14.317Z,4.10
2017-11-29T04:07:41.806Z,4.10
2017-11-29T04:10:10.205Z,4.20
2017-11-29T04:12:37.696Z,4.10
2017-11-29T04:15:05.202Z,4.20
2017-11-29T04:17:32.689Z,4.20
2017-11-29T04:20:00.187Z,4.20
2017-11-29T04:22:27.681Z,4.20
2017-11-29T04:24:55.194Z,4.20
2017-11-29T04:27:22.679Z,4.20
2017-11-29T04:29:50.199Z,4.20
2017-11-29T04:32:17.681Z,4.20
2017-11-29T04:34:45.207Z,4.20
2017-11-29T04:37:12.712Z,4.20
2017-11-29T04:39:40.274Z,4.20
2017-11-29T04:42:07.820Z,4.20
2017-11-29T04:44:35.309Z,4.10
2017-11-29T04:47:02.992Z,4.20
2017-11-29T04:49:30.490Z,4.20
2017-11-29T04:51:57.974Z,4.20
2017-11-29T04:54:25.489Z,4.20
2017-11-29T04:56:52.973Z,4.10
2017-11-29T04:59:20.506Z,4.00
2017-11-29T05:01:48.021Z,3.90
2017-11-29T05:04:15.636Z,3.90
2017-11-29T05:06:43.125Z,3.80
2017-11-29T05:09:10.641Z,3.70
2017-11-29T05:11:38.142Z,3.60
2017-11-29T05:14:05.645Z,3.50
2017-11-29T05:16:33.165Z,3.40
2017-11-29T05:19:00.701Z,3.40
2017-11-29T05:21:28.218Z,3.30
2017-11-29T05:23:56.458Z,3.30
2017-11-29T05:26:23.969Z,3.30
2017-11-29T05:28:51.470Z,3.20
2017-11-29T05:31:18.978Z,3.20
2017-11-29T05:33:47.215Z,3.30
2017-11-29T05:36:14.740Z,3.30
2017-11-29T05:38:42.234Z,3.20
2017-11-29T05:41:10.666Z,3.30
2017-11-29T05:43:38.138Z,3.30
2017-11-29T05:46:05.800Z,3.30
2017-11-29T05:48:33.321Z,3.30
2017-11-29T05:51:01.718Z,3.30
2017-11-29T05:53:29.220Z,3.30
2017-11-29T05:55:56.718Z,3.30
2017-11-29T05:58:24.216Z,3.20
2017-11-29T06:00:51.858Z,3.10
2017-11-29T06:03:19.343Z,3.20
2017-11-29T06:05:46.849Z,3.10
2017-11-29T06:08:14.541Z,3.10
2017-11-29T06:10:42.022Z,3.00
2017-11-29T06:13:09.526Z,3.00
2017-11-29T06:15:37.815Z,2.90
2017-11-29T06:18:06.071Z,2.90
2017-11-29T06:20:33.563Z,2.90
2017-11-29T06:23:01.066Z,2.80
2017-11-29T06:25:28.553Z,2.90
2017-11-29T06:27:56.066Z,2.90
2017-11-29T06:30:23.570Z,2.90
2017-11-29T06:32:51.069Z,2.90
2017-11-29T06:35:18.662Z,3.00
2017-11-29T06:37:46.189Z,2.90
2017-11-29T06:40:13.705Z,3.10
2017-11-29T06:42:42.025Z,3.20
2017-11-29T06:45:09.519Z,3.20
2017-11-29T06:47:36.998Z,3.20
2017-11-29T06:50:04.494Z,3.20
2017-11-29T06:52:32.011Z,3.20
2017-11-29T06:54:59.510Z,3.20
2017-11-29T06:57:27.013Z,3.30
2017-11-29T06:59:54.702Z,3.40
2017-11-29T07:02:23.109Z,3.40
2017-11-29T07:04:50.695Z,3.40
2017-11-29T07:07:18.253Z,3.50
2017-11-29T07:09:45.882Z,3.60
2017-11-29T07:12:13.404Z,3.60
2017-11-29T07:14:41.113Z,3.70
2017-11-29T07:17:08.816Z,3.80
2017-11-29T07:19:36.442Z,3.80
2017-11-29T07:22:03.966Z,3.90
2017-11-29T07:24:31.460Z,3.90
2017-11-29T07:26:59.169Z,3.90
2017-11-29T07:29:26.678Z,3.90
2017-11-29T07:31:54.951Z,4.10
2017-11-29T07:34:22.514Z,4.00
2017-11-29T07:36:50.087Z,4.10
2017-11-29T07:39:17.645Z,4.10
2017-11-29T07:41:45.132Z,4.20
2017-11-29T07:44:12.657Z,4.30
2017-11-29T07:46:40.935Z,4.30
2017-11-29T07:49:08.454Z,4.30
2017-11-29T07:51:35.949Z,4.40
2017-11-29T07:54:03.544Z,4.50
2017-11-29T07:56:31.273Z,4.60
2017-11-29T07:58:58.768Z,4.70
2017-11-29T08:01:26.281Z,4.80
2017-11-29T08:03:53.782Z,4.70
2017-11-29T08:06:21.263Z,4.60
2017-11-29T08:08:48.962Z,4.60
2017-11-29T08:11:17.244Z,4.50
2017-11-29T08:13:45.721Z,4.40
2017-11-29T08:16:13.458Z,4.40
2017-11-29T08:18:40.934Z,4.40
2017-11-29T08:21:09.481Z,4.20
2017-11-29T08:23:36.988Z,4.20
2017-11-29T08:26:05.238Z,4.20
2017-11-29T08:28:32.839Z,4.20
2017-11-29T08:31:00.346Z,4.20
2017-11-29T08:33:27.834Z,4.20
2017-11-29T08:35:56.094Z,4.10
2017-11-29T08:38:23.824Z,4.10
2017-11-29T08:40:51.333Z,4.10
2017-11-29T08:43:19.625Z,4.00
2017-11-29T08:45:47.165Z,4.00
2017-11-29T08:48:15.549Z,4.00
2017-11-29T08:50:43.030Z,4.00
2017-11-29T08:53:10.520Z,4.10
2017-11-29T08:55:38.006Z,4.20
2017-11-29T08:58:05.627Z,4.20
2017-11-29T09:00:33.121Z,4.30
2017-11-29T09:03:01.409Z,4.40
2017-11-29T09:05:29.095Z,4.40
2017-11-29T09:07:56.594Z,4.50
2017-11-29T09:10:24.114Z,4.40
2017-11-29T09:12:51.607Z,4.50
2017-11-29T09:15:19.104Z,4.50
2017-11-29T09:17:46.613Z,4.50
2017-11-29T09:20:14.100Z,4.50
2017-11-29T09:22:41.634Z,4.60
2017-11-29T09:25:09.159Z,4.60
2017-11-29T09:27:36.649Z,4.50
2017-11-29T09:30:04.269Z,4.50
2017-11-29T09:32:31.941Z,4.50
2017-11-29T09:34:59.504Z,4.50
2017-11-29T09:37:27.207Z,4.60
2017-11-29T09:39:54.723Z,4.60
2017-11-29T09:42:22.242Z,4.70
2017-11-29T09:44:49.740Z,4.70
2017-11-29T09:47:18.029Z,4.80
2017-11-29T09:49:46.294Z,4.80
2017-11-29T09:52:13.780Z,4.80
2017-11-29T09:54:41.422Z,4.90
2017-11-29T09:57:09.719Z,5.00
2017-11-29T09:59:37.285Z,5.00
2017-11-29T10:02:04.864Z,5.10
2017-11-29T10:04:32.346Z,5.20
2017-11-29T10:07:00.034Z,5.20
2017-11-29T10:09:27.534Z,5.20
2017-11-29T10:11:55.181Z,5.30
2017-11-29T10:14:22.664Z,5.30
2017-11-29T10:16:50.185Z,5.40
2017-11-29T10:19:17.780Z,5.40
2017-11-29T10:21:45.272Z,5.40
2017-11-29T10:24:12.821Z,5.50
2017-11-29T10:26:40.320Z,5.50
2017-11-29T10:29:08.595Z,5.60
2017-11-29T10:31:36.855Z,5.60
2017-11-29T10:34:04.358Z,5.60
2017-11-29T10:36:31.923Z,5.70
2017-11-29T10:38:59.435Z,5.70
2017-11-29T10:41:26.913Z,5.80
2017-11-29T10:43:55.198Z,5.90
2017-11-29T10:46:22.714Z,5.80
2017-11-29T10:48:52.990Z,5.90
2017-11-29T10:51:20.469Z,5.90
2017-11-29T10:53:47.954Z,5.90
2017-11-29T10:56:15.456Z,6.00
2017-11-29T10:58:42.942Z,6.00
2017-11-29T11:01:10.454Z,6.00
2017-11-29T11:03:37.970Z,6.10
2017-11-29T11:06:05.451Z,6.00
2017-11-29T11:08:34.585Z,6.00
2017-11-29T11:11:03.128Z,6.00
2017-11-29T11:13:30.646Z,6.00
2017-11-29T11:15:58.232Z,6.00
2017-11-29T11:18:25.754Z,6.00
2017-11-29T11:20:53.254Z,6.10
2017-11-29T11:23:20.875Z,6.20
2017-11-29T11:25:48.557Z,6.30
2017-11-29T11:28:16.064Z,6.30
2017-11-29T11:30:43.554Z,6.30
2017-11-29T11:33:11.045Z,6.30
2017-11-29T11:35:38.549Z,6.20
2017-11-29T11:38:06.829Z,6.30
2017-11-29T11:40:34.316Z,6.20
2017-11-29T11:43:01.983Z,6.30
2017-11-29T11:45:29.499Z,6.30
2017-11-29T11:47:57.147Z,6.30
2017-11-29T11:50:24.841Z,6.30
2017-11-29T11:52:52.351Z,6.40
2017-11-29T11:55:19.850Z,6.40
2017-11-29T11:57:47.367Z,6.40
2017-11-29T12:00:14.837Z,6.40
2017-11-29T12:02:42.646Z,6.40
2017-11-29T12:05:10.917Z,6.50
2017-11-29T12:07:39.169Z,6.40
2017-11-29T12:10:06.694Z,6.40
2017-11-29T12:12:34.183Z,6.40
2017-11-29T12:15:01.976Z,6.50
2017-11-29T12:17:29.467Z,6.50
2017-11-29T12:19:56.964Z,6.50
2017-11-29T12:22:24.490Z,6.50
2017-11-29T12:24:52.011Z,6.50
2017-11-29T12:27:19.709Z,6.50
2017-11-29T12:29:47.172Z,6.50
2017-11-29T12:32:14.847Z,6.50
2017-11-29T12:34:42.362Z,6.50
2017-11-29T12:37:10.634Z,6.40
2017-11-29T12:39:38.145Z,6.40
2017-11-29T12:42:05.667Z,6.50
2017-11-29T12:44:33.156Z,6.50
2017-11-29T12:47:00.779Z,6.40
2017-11-29T12:49:40.045Z,6.40
2017-11-29T12:52:07.592Z,6.40
2017-11-29T12:54:35.238Z,6.40
2017-11-29T12:57:02.909Z,6.40
2017-11-29T12:59:30.437Z,6.40
2017-11-29T13:01:57.956Z,6.40
2017-11-29T13:04:25.477Z,6.40
2017-11-29T13:06:52.985Z,6.30
2017-11-29T13:09:20.517Z,6.30
2017-11-29T13:11:48.009Z,6.40
2017-11-29T13:14:15.501Z,6.30
2017-11-29T13:16:43.019Z,6.30
2017-11-29T13:19:10.491Z,6.20
2017-11-29T13:21:38.758Z,6.10
2017-11-29T13:24:06.281Z,6.10
2017-11-29T13:26:33.786Z,6.10
2017-11-29T13:29:01.299Z,6.20
2017-11-29T13:31:28.801Z,6.20
2017-11-29T13:33:56.302Z,6.20
2017-11-29T13:36:23.787Z,6.20
2017-11-29T13:38:51.334Z,6.10
2017-11-29T13:41:19.221Z,6.10
2017-11-29T13:43:46.764Z,6.00
2017-11-29T13:46:14.692Z,6.00
2017-11-29T13:48:42.207Z,6.00
2017-11-29T13:51:09.700Z,5.90
2017-11-29T13:53:37.244Z,5.90
2017-11-29T13:56:04.971Z,5.90
2017-11-29T13:58:32.518Z,5.80
2017-11-29T14:01:00.015Z,5.80
2017-11-29T14:03:27.601Z,5.70
2017-11-29T14:05:55.183Z,5.60
2017-11-29T14:08:22.722Z,5.60
2017-11-29T14:10:50.662Z,5.50
2017-11-29T14:13:18.160Z,5.50
2017-11-29T14:15:46.476Z,5.50
2017-11-29T14:18:14.001Z,5.40
2017-11-29T14:20:42.384Z,5.40
2017-11-29T14:23:09.902Z,5.40
2017-11-29T14:25:37.659Z,5.30
2017-11-29T14:28:05.372Z,5.20
2017-11-29T14:30:32.929Z,5.20
2017-11-29T14:33:00.540Z,5.30
2017-11-29T14:35:28.119Z,5.30
2017-11-29T14:37:55.610Z,5.20
2017-11-29T14:40:24.199Z,5.10
2017-11-29T14:42:52.460Z,5.10
2017-11-29T14:45:20.742Z,5.10
2017-11-29T14:47:49.017Z,5.10
2017-11-29T14:50:17.273Z,5.00
2017-11-29T14:52:44.761Z,5.00
2017-11-29T14:55:12.316Z,5.00
2017-11-29T14:57:39.806Z,4.90
2017-11-29T15:00:07.401Z,4.90
2017-11-29T15:02:35.225Z,4.80
2017-11-29T15:05:02.697Z,4.80
2017-11-29T15:07:30.181Z,4.80
2017-11-29T15:09:57.671Z,4.80
2017-11-29T15:12:25.948Z,4.80
2017-11-29T15:14:54.269Z,4.70
2017-11-29T15:17:21.807Z,4.70
2017-11-29T15:19:49.469Z,4.60
2017-11-29T15:22:17.030Z,4.60
2017-11-29T15:24:44.613Z,4.60
2017-11-29T15:27:12.246Z,4.50
2017-11-29T15:29:40.620Z,4.50
2017-11-29T15:32:09.044Z,4.50
2017-11-29T15:34:36.537Z,4.40
2017-11-29T15:37:04.059Z,4.50
2017-11-29T15:39:31.591Z,4.50
2017-11-29T15:41:59.089Z,4.50
2017-11-29T15:44:26.613Z,4.50
2017-11-29T15:46:54.101Z,4.50
2017-11-29T15:49:21.597Z,4.40
2017-11-29T15:51:49.292Z,4.30
2017-11-29T15:54:16.765Z,4.30
2017-11-29T15:56:44.326Z,4.40
2017-11-29T15:59:11.987Z,4.30
2017-11-29T16:01:39.491Z,4.30
2017-11-29T16:04:07.129Z,4.40
2017-11-29T16:06:34.629Z,4.40
2017-11-29T16:09:02.892Z,4.40
2017-11-29T16:11:30.394Z,4.40
2017-11-29T16:13:57.909Z,4.40
2017-11-29T16:16:25.397Z,4.40
2017-11-29T16:18:54.018Z,4.50
2017-11-29T16:21:21.522Z,4.50
2017-11-29T16:23:49.033Z,4.60
2017-11-29T16:26:16.666Z,4.70
2017-11-29T16:28:44.345Z,4.80
2017-11-29T16:31:11.941Z,4.70
2017-11-29T16:33:39.456Z,4.70
2017-11-29T16:36:06.973Z,4.70
2017-11-29T16:38:34.502Z,4.60
2017-11-29T16:41:01.988Z,4.50
2017-11-29T16:43:29.500Z,4.50
2017-11-29T16:45:57.205Z,4.50
2017-11-29T16:48:25.158Z,4.50
2017-11-29T16:50:52.681Z,4.40
2017-11-29T16:53:20.170Z,4.40
2017-11-29T16:55:47.689Z,4.40
2017-11-29T16:58:15.222Z,4.40
2017-11-29T17:00:42.745Z,4.50
2017-11-29T17:03:10.264Z,4.50
2017-11-29T17:05:37.931Z,4.40
2017-11-29T17:08:05.454Z,4.40
2017-11-29T17:10:32.962Z,4.40
2017-11-29T17:13:00.441Z,4.40
2017-11-29T17:15:28.202Z,4.40
2017-11-29T17:17:55.712Z,4.40
2017-11-29T17:20:24.016Z,4.40
2017-11-29T17:22:51.525Z,4.40
2017-11-29T17:25:19.106Z,4.40
2017-11-29T17:27:46.616Z,4.40
2017-11-29T17:30:14.488Z,4.50
2017-11-29T17:32:41.976Z,4.50
2017-11-29T17:35:09.501Z,4.50
2017-11-29T17:37:36.983Z,4.50
2017-11-29T17:40:04.885Z,4.50
2017-11-29T17:42:32.547Z,4.50
2017-11-29T17:45:00.025Z,4.50
2017-11-29T17:47:27.561Z,4.50
2017-11-29T17:49:55.850Z,4.60
2017-11-29T17:52:24.230Z,4.60
2017-11-29T17:54:52.491Z,4.60
2017-11-29T17:57:20.024Z,4.50
2017-11-29T17:59:47.527Z,4.60
2017-11-29T18:02:15.823Z,4.60
2017-11-29T18:04:43.350Z,4.50
2017-11-29T18:07:10.869Z,4.60
2017-11-29T18:09:38.371Z,4.50
2017-11-29T18:12:06.649Z,4.40
2017-11-29T18:14:34.925Z,4.40
2017-11-29T18:17:02.826Z,4.40
2017-11-29T18:19:30.342Z,4.40
2017-11-29T18:21:58.664Z,4.40
2017-11-29T18:24:26.169Z,4.40
2017-11-29T18:26:53.698Z,4.40
2017-11-29T18:29:21.267Z,4.40
2017-11-29T18:31:48.751Z,4.30
2017-11-29T18:34:16.451Z,4.40
2017-11-29T18:36:44.105Z,4.40
2017-11-29T18:39:11.624Z,4.40
2017-11-29T18:41:39.280Z,4.40
2017-11-29T18:44:06.885Z,3.70
2017-11-29T18:46:34.456Z,4.30
2017-11-29T18:49:01.931Z,4.30
2017-11-29T18:51:29.576Z,4.30
2017-11-29T18:53:57.234Z,4.30
2017-11-29T18:56:24.897Z,4.30
2017-11-29T18:58:52.576Z,4.40
2017-11-29T19:01:20.336Z,4.30
2017-11-29T19:03:47.842Z,4.30
2017-11-29T19:06:15.347Z,4.20
2017-11-29T19:08:42.867Z,4.20
2017-11-29T19:11:10.349Z,4.30
2017-11-29T19:13:38.606Z,4.20
2017-11-29T19:16:06.106Z,4.20
2017-11-29T19:18:33.649Z,4.20
2017-11-29T19:21:01.334Z,4.20
2017-11-29T19:23:28.839Z,4.20
2017-11-29T19:25:56.362Z,4.10
2017-11-29T19:28:23.858Z,4.10
2017-11-29T19:30:51.381Z,4.10
2017-11-29T19:33:18.878Z,4.10
2017-11-29T19:35:46.446Z,4.00
2017-11-29T19:38:14.731Z,4.10
2017-11-29T19:40:42.991Z,4.10
2017-11-29T19:43:10.572Z,4.00
2017-11-29T19:45:38.094Z,4.10
2017-11-29T19:48:05.602Z,4.10
2017-11-29T19:50:33.118Z,4.10
2017-11-29T19:53:00.613Z,4.10
2017-11-29T19:55:29.035Z,4.00
2017-11-29T19:57:56.580Z,4.00
2017-11-29T20:00:24.225Z,4.00
2017-11-29T20:02:51.737Z,4.00
2017-11-29T20:05:19.249Z,3.90
2017-11-29T20:07:46.897Z,3.90
2017-11-29T20:10:14.376Z,3.90
2017-11-29T20:12:41.933Z,3.90
2017-11-29T20:15:09.422Z,3.90
2017-11-29T20:17:36.974Z,4.00
2017-11-29T20:20:04.479Z,4.00
2017-11-29T20:22:32.015Z,4.00
2017-11-29T20:24:59.514Z,4.00
2017-11-29T20:27:27.054Z,3.90
2017-11-29T20:29:55.317Z,3.90
2017-11-29T20:32:23.595Z,3.90
2017-11-29T20:34:51.106Z,3.90
2017-11-29T20:37:18.620Z,3.90
2017-11-29T20:39:46.897Z,3.90
2017-11-29T20:42:14.402Z,3.90
2017-11-29T20:44:41.907Z,3.90
2017-11-29T20:47:09.408Z,3.90
2017-11-29T20:49:37.079Z,3.90
2017-11-29T20:52:04.549Z,4.00
2017-11-29T20:54:32.226Z,4.00
2017-11-29T20:56:59.703Z,4.00
2017-11-29T20:59:27.978Z,4.00
2017-11-29T21:01:55.474Z,4.00
2017-11-29T21:04:22.991Z,4.00
2017-11-29T21:06:51.246Z,3.90
2017-11-29T21:09:18.800Z,4.00
2017-11-29T21:11:46.286Z,4.00
2017-11-29T21:14:13.801Z,4.00
2017-11-29T21:16:41.296Z,4.00
2017-11-29T21:19:09.126Z,4.00
2017-11-29T21:21:36.630Z,3.90
2017-11-29T21:24:04.151Z,4.00
2017-11-29T21:26:31.669Z,4.00
2017-11-29T21:28:59.168Z,3.90
2017-11-29T21:31:26.662Z,3.90
2017-11-29T21:33:54.234Z,3.90
2017-11-29T21:36:21.842Z,3.90
2017-11-29T21:38:49.335Z,3.90
2017-11-29T21:41:16.845Z,3.80
2017-11-29T21:43:44.480Z,3.70
2017-11-29T21:46:11.986Z,3.70
2017-11-29T21:48:39.477Z,3.70
2017-11-29T21:51:06.976Z,3.70
2017-11-29T21:53:34.470Z,3.70
2017-11-29T21:56:02.130Z,3.80
2017-11-29T21:58:29.685Z,3.90
2017-11-29T22:00:57.195Z,4.10
2017-11-29T22:03:24.722Z,4.10
2017-11-29T22:05:52.287Z,4.20
2017-11-29T22:08:19.840Z,4.20
2017-11-29T22:10:47.373Z,4.20
2017-11-29T22:13:14.890Z,4.20
2017-11-29T22:15:42.473Z,4.20
2017-11-29T22:18:09.896Z,4.20
2017-11-29T22:20:37.486Z,4.20
2017-11-29T22:23:05.910Z,4.20
2017-11-29T22:25:33.413Z,4.20
2017-11-29T22:28:01.768Z,4.20
2017-11-29T22:30:29.269Z,4.20
2017-11-29T22:32:56.969Z,4.20
2017-11-29T22:35:24.481Z,4.20
2017-11-29T22:37:52.003Z,4.20
2017-11-29T22:40:19.523Z,4.20
2017-11-29T22:42:47.059Z,4.20
2017-11-29T22:45:15.439Z,4.20
2017-11-29T22:47:43.101Z,4.20
2017-11-29T22:50:10.594Z,4.20
2017-11-29T22:52:38.433Z,4.20
2017-11-29T22:55:06.886Z,4.20
2017-11-29T22:57:35.887Z,4.00
2017-11-29T23:00:03.419Z,4.00
2017-11-29T23:02:31.028Z,4.00
2017-11-29T23:04:59.436Z,4.00
2017-11-29T23:07:26.948Z,4.00
2017-11-29T23:09:54.626Z,4.00
2017-11-29T23:12:22.177Z,3.90
2017-11-29T23:14:49.773Z,3.90
2017-11-29T23:17:17.297Z,3.80
2017-11-29T23:19:44.808Z,3.80
2017-11-29T23:22:12.300Z,3.70
2017-11-29T23:24:39.874Z,3.70
2017-11-29T23:27:07.549Z,3.70
2017-11-29T23:29:35.058Z,3.60
2017-11-29T23:32:03.398Z,3.60
2017-11-29T23:34:30.893Z,3.60
2017-11-29T23:36:58.394Z,3.60
2017-11-29T23:39:26.657Z,3.60
2017-11-29T23:41:54.185Z,3.60
2017-11-29T23:44:21.712Z,3.70
2017-11-29T23:46:49.237Z,3.80
2017-11-29T23:49:16.793Z,3.80
2017-11-29T23:51:44.382Z,3.80
2017-11-29T23:54:11.906Z,3.90
2017-11-29T23:56:39.568Z,3.90
2017-11-29T23:59:07.090Z,3.90
